Time;durP1;ratioP1;P1;durP2;ratioP2;P2;SDS_P1;SDS_P2;PMS_P1;PMS_P2;Temp;Humidity;BMP_temperature;BMP_pressure;BME280_temperature;BME280_humidity;BME280_pressure;Samples;Min_cycle;Max_cycle;Signal;HPM_P1;HPM_P2
2023/05/27 00:00:08;;;;;;;5.65;3.88;;;;;;;;;;4960240;29;20421;-75
2023/05/27 00:02:34;;;;;;;18.70;4.90;;;;;;;;;;4959574;29;20173;-75
2023/05/27 00:05:01;;;;;;;12.23;4.70;;;;;;;;;;4959999;29;20189;-75
2023/05/27 00:07:27;;;;;;;17.75;5.05;;;;;;;;;;4959350;29;20413;-75
2023/05/27 00:09:54;;;;;;;10.00;4.30;;;;;;;;;;4959623;29;20216;-75
2023/05/27 00:12:20;;;;;;;12.77;5.20;;;;;;;;;;4959925;29;20556;-76
2023/05/27 00:14:46;;;;;;;13.32;3.92;;;;;;;;;;4959625;29;20596;-75
2023/05/27 00:17:15;;;;;;;18.73;5.88;;;;;;;;;;4960043;29;20208;-76
2023/05/27 00:19:42;;;;;;;10.32;4.53;;;;;;;;;;4959454;29;20244;-76
2023/05/27 00:22:08;;;;;;;12.98;4.72;;;;;;;;;;4959303;29;20181;-76
2023/05/27 00:24:37;;;;;;;22.30;5.25;;;;;;;;;;4959121;29;20197;-76
2023/05/27 00:27:03;;;;;;;19.17;4.78;;;;;;;;;;4959105;29;20192;-76
2023/05/27 00:29:29;;;;;;;12.43;4.35;;;;;;;;;;4941925;29;20574;-76
2023/05/27 00:31:55;;;;;;;18.75;4.95;;;;;;;;;;4958411;28;20184;-76
2023/05/27 00:34:21;;;;;;;16.23;5.43;;;;;;;;;;4959016;29;20262;-76
2023/05/27 00:36:48;;;;;;;13.05;5.30;;;;;;;;;;4959177;29;20181;-77
2023/05/27 00:39:14;;;;;;;14.02;5.72;;;;;;;;;;4958871;29;20188;-76
2023/05/27 00:41:43;;;;;;;13.43;4.85;;;;;;;;;;4959400;29;20184;-76
2023/05/27 00:44:10;;;;;;;18.45;4.57;;;;;;;;;;4959148;29;20195;-76
2023/05/27 00:46:36;;;;;;;14.77;5.10;;;;;;;;;;4941341;29;20654;-76
2023/05/27 00:49:02;;;;;;;17.13;4.70;;;;;;;;;;4959249;29;20212;-75
2023/05/27 00:51:29;;;;;;;16.58;5.60;;;;;;;;;;4941968;29;20573;-76
2023/05/27 00:53:55;;;;;;;9.45;4.10;;;;;;;;;;4959149;29;20185;-76
2023/05/27 00:56:21;;;;;;;18.30;5.47;;;;;;;;;;4959046;29;20181;-76
2023/05/27 00:58:47;;;;;;;10.52;4.72;;;;;;;;;;4959227;29;20212;-75
2023/05/27 01:01:13;;;;;;;15.18;5.90;;;;;;;;;;4959171;29;20193;-75
2023/05/27 01:03:41;;;;;;;13.75;4.57;;;;;;;;;;4959995;29;20219;-75
2023/05/27 01:06:16;;;;;;;22.98;4.95;;;;;;;;;;4959443;29;20189;-76
2023/05/27 01:08:48;;;;;;;14.25;5.00;;;;;;;;;;4959162;29;20211;-75
2023/05/27 01:11:15;;;;;;;16.40;4.80;;;;;;;;;;4959678;29;20180;-76
2023/05/27 01:13:45;;;;;;;17.95;5.45;;;;;;;;;;4958756;29;20181;-76
2023/05/27 01:16:13;;;;;;;14.00;5.05;;;;;;;;;;4959186;29;20268;-75
2023/05/27 01:18:44;;;;;;;13.23;5.07;;;;;;;;;;4959319;29;20177;-75
2023/05/27 01:21:12;;;;;;;18.80;5.55;;;;;;;;;;4959584;29;20173;-75
2023/05/27 01:23:39;;;;;;;9.90;4.85;;;;;;;;;;4959041;29;20240;-75
2023/05/27 01:26:06;;;;;;;15.50;4.88;;;;;;;;;;4959604;29;20668;-75
2023/05/27 01:28:32;;;;;;;18.27;5.90;;;;;;;;;;4958581;29;20204;-75
2023/05/27 01:31:01;;;;;;;9.82;4.28;;;;;;;;;;4959549;29;20193;-76
2023/05/27 01:33:30;;;;;;;13.80;4.80;;;;;;;;;;4958890;29;20198;-75
2023/05/27 01:36:01;;;;;;;9.95;4.10;;;;;;;;;;4959414;29;20279;-76
2023/05/27 01:38:29;;;;;;;9.75;4.40;;;;;;;;;;4958892;29;20204;-76
2023/05/27 01:40:56;;;;;;;17.40;5.00;;;;;;;;;;4958960;29;20185;-76
2023/05/27 01:43:22;;;;;;;15.18;4.65;;;;;;;;;;4961038;28;20188;-76
2023/05/27 01:45:48;;;;;;;14.00;5.30;;;;;;;;;;4962756;29;20534;-76
2023/05/27 01:48:14;;;;;;;13.00;5.35;;;;;;;;;;4962343;29;20704;-76
2023/05/27 01:50:40;;;;;;;13.38;5.82;;;;;;;;;;4962579;29;20232;-76
2023/05/27 01:53:06;;;;;;;13.82;5.05;;;;;;;;;;4963317;29;20173;-76
2023/05/27 01:55:32;;;;;;;9.00;4.90;;;;;;;;;;4962710;29;20172;-76
2023/05/27 01:57:58;;;;;;;11.07;4.65;;;;;;;;;;4962505;29;20223;-76
2023/05/27 02:00:24;;;;;;;15.45;5.75;;;;;;;;;;4962666;29;20616;-77
2023/05/27 02:02:51;;;;;;;17.48;5.30;;;;;;;;;;4962570;29;20187;-76
2023/05/27 02:05:17;;;;;;;15.70;5.25;;;;;;;;;;4961968;29;20176;-76
2023/05/27 02:07:43;;;;;;;12.50;5.30;;;;;;;;;;4962459;29;20272;-76
2023/05/27 02:10:09;;;;;;;10.25;5.20;;;;;;;;;;4962717;29;20217;-76
2023/05/27 02:12:35;;;;;;;10.10;5.03;;;;;;;;;;4962309;29;20285;-75
2023/05/27 02:15:01;;;;;;;15.77;4.87;;;;;;;;;;4962567;29;20654;-75
2023/05/27 02:17:27;;;;;;;15.52;4.85;;;;;;;;;;4962516;29;20416;-75
2023/05/27 02:19:55;;;;;;;15.20;5.15;;;;;;;;;;4962196;29;20736;-75
2023/05/27 02:22:21;;;;;;;19.17;5.53;;;;;;;;;;4962953;29;20177;-75
2023/05/27 02:24:47;;;;;;;19.80;5.70;;;;;;;;;;4962109;29;20192;-75
2023/05/27 02:27:13;;;;;;;20.80;5.53;;;;;;;;;;4962137;29;20431;-75
2023/05/27 02:29:39;;;;;;;14.80;5.45;;;;;;;;;;4962144;29;20227;-75
2023/05/27 02:32:05;;;;;;;11.57;4.80;;;;;;;;;;4961569;29;20185;-75
2023/05/27 02:34:36;;;;;;;27.75;5.75;;;;;;;;;;4961258;29;20409;-75
2023/05/27 02:37:02;;;;;;;15.60;5.68;;;;;;;;;;4962258;29;20579;-75
2023/05/27 02:39:28;;;;;;;15.07;5.45;;;;;;;;;;4962237;29;20181;-76
2023/05/27 02:41:54;;;;;;;18.65;6.22;;;;;;;;;;4961726;29;20180;-75
2023/05/27 02:44:20;;;;;;;12.65;5.88;;;;;;;;;;4962295;29;20595;-75
2023/05/27 02:46:46;;;;;;;18.42;5.43;;;;;;;;;;4961222;29;20649;-75
2023/05/27 02:49:12;;;;;;;14.18;5.47;;;;;;;;;;4961471;29;20271;-75
2023/05/27 02:51:38;;;;;;;14.00;7.03;;;;;;;;;;4961594;29;20319;-75
2023/05/27 02:54:04;;;;;;;18.77;5.57;;;;;;;;;;4961080;28;20413;-75
2023/05/27 02:56:30;;;;;;;16.77;4.80;;;;;;;;;;4961751;29;20483;-76
2023/05/27 02:58:56;;;;;;;22.90;6.53;;;;;;;;;;4961637;29;20185;-75
2023/05/27 03:01:22;;;;;;;14.00;5.05;;;;;;;;;;4961858;29;20232;-74
2023/05/27 03:03:48;;;;;;;16.25;5.65;;;;;;;;;;4961851;29;20228;-75
2023/05/27 03:06:15;;;;;;;14.15;4.88;;;;;;;;;;4962263;29;20192;-75
2023/05/27 03:08:41;;;;;;;19.13;6.28;;;;;;;;;;4961832;29;20562;-75
2023/05/27 03:11:07;;;;;;;19.73;5.20;;;;;;;;;;4961541;29;20196;-75
2023/05/27 03:13:33;;;;;;;21.55;5.95;;;;;;;;;;4961361;29;20177;-75
2023/05/27 03:15:59;;;;;;;14.23;6.27;;;;;;;;;;4961467;29;20169;-75
2023/05/27 03:18:25;;;;;;;23.27;6.15;;;;;;;;;;4961380;29;20409;-75
2023/05/27 03:20:51;;;;;;;12.32;5.93;;;;;;;;;;4960896;29;20191;-76
2023/05/27 03:23:17;;;;;;;19.90;5.85;;;;;;;;;;4960894;29;20181;-76
2023/05/27 03:25:43;;;;;;;13.33;6.10;;;;;;;;;;4960552;29;20177;-77
2023/05/27 03:28:10;;;;;;;14.33;5.60;;;;;;;;;;4960921;29;20405;-76
2023/05/27 03:30:36;;;;;;;15.63;4.88;;;;;;;;;;4960318;29;20512;-77
2023/05/27 03:33:02;;;;;;;19.15;5.03;;;;;;;;;;4960919;29;20185;-77
2023/05/27 03:35:28;;;;;;;14.10;6.72;;;;;;;;;;4943698;29;20239;-77
2023/05/27 03:37:54;;;;;;;13.65;5.90;;;;;;;;;;4960755;29;20177;-77
2023/05/27 03:40:20;;;;;;;16.17;6.20;;;;;;;;;;4960521;29;20189;-77
2023/05/27 03:42:46;;;;;;;18.50;5.17;;;;;;;;;;4960793;29;20405;-77
2023/05/27 03:45:12;;;;;;;21.80;5.33;;;;;;;;;;4961304;29;20421;-76
2023/05/27 03:47:38;;;;;;;17.40;5.30;;;;;;;;;;4960032;29;20420;-76
2023/05/27 03:50:05;;;;;;;17.50;6.70;;;;;;;;;;4960780;29;20925;-76
2023/05/27 03:52:31;;;;;;;26.83;6.32;;;;;;;;;;4960999;29;20413;-79
2023/05/27 03:54:57;;;;;;;15.73;4.68;;;;;;;;;;4960645;29;20185;-76
2023/05/27 03:57:23;;;;;;;16.05;5.53;;;;;;;;;;4960772;29;20305;-76
2023/05/27 03:59:49;;;;;;;11.30;4.50;;;;;;;;;;4961007;29;20181;-76
2023/05/27 04:02:15;;;;;;;13.90;5.20;;;;;;;;;;4960650;29;20173;-76
2023/05/27 04:04:41;;;;;;;14.23;6.13;;;;;;;;;;4960586;29;20238;-76
2023/05/27 04:07:07;;;;;;;21.02;5.85;;;;;;;;;;4960196;28;20181;-76
2023/05/27 04:09:33;;;;;;;21.60;7.13;;;;;;;;;;4960923;29;20247;-76
2023/05/27 04:12:00;;;;;;;19.98;5.53;;;;;;;;;;4960732;29;20189;-76
2023/05/27 04:14:26;;;;;;;17.98;5.63;;;;;;;;;;4960599;29;20231;-76
2023/05/27 04:16:52;;;;;;;21.48;5.80;;;;;;;;;;4960645;29;20586;-76
2023/05/27 04:19:18;;;;;;;13.63;5.40;;;;;;;;;;4961068;29;20174;-76
2023/05/27 04:21:44;;;;;;;16.60;6.32;;;;;;;;;;4960002;29;20185;-76
2023/05/27 04:24:10;;;;;;;15.95;6.90;;;;;;;;;;4959860;29;20185;-76
2023/05/27 04:26:37;;;;;;;15.48;6.15;;;;;;;;;;4960220;29;20534;-76
2023/05/27 04:29:04;;;;;;;19.92;6.13;;;;;;;;;;4959912;29;20217;-76
2023/05/27 04:31:30;;;;;;;19.75;5.95;;;;;;;;;;4959801;29;20173;-76
2023/05/27 04:33:56;;;;;;;23.80;7.20;;;;;;;;;;4959225;29;20679;-76
2023/05/27 04:36:24;;;;;;;17.20;5.43;;;;;;;;;;4959365;29;20220;-76
2023/05/27 04:38:51;;;;;;;14.07;6.30;;;;;;;;;;4941905;29;20196;-76
2023/05/27 04:41:19;;;;;;;15.98;5.40;;;;;;;;;;4957260;29;20736;-78
2023/05/27 04:43:46;;;;;;;11.80;4.70;;;;;;;;;;4956943;29;20708;-75
2023/05/27 04:46:12;;;;;;;14.27;5.25;;;;;;;;;;4942719;29;20177;-76
2023/05/27 04:48:39;;;;;;;14.88;5.57;;;;;;;;;;4958445;29;20181;-80
2023/05/27 04:51:05;;;;;;;20.08;5.78;;;;;;;;;;4958401;29;20233;-77
2023/05/27 04:53:32;;;;;;;20.50;5.60;;;;;;;;;;4958999;29;20232;-76
2023/05/27 04:55:58;;;;;;;15.88;5.15;;;;;;;;;;4958461;29;20519;-77
2023/05/27 04:58:24;;;;;;;17.08;5.60;;;;;;;;;;4957866;29;20169;-77
2023/05/27 05:00:52;;;;;;;15.50;5.60;;;;;;;;;;4957746;29;20181;-76
2023/05/27 05:03:26;;;;;;;13.60;6.10;;;;;;;;;;4959392;29;20177;-76
2023/05/27 05:05:53;;;;;;;14.73;6.40;;;;;;;;;;4958929;29;20263;-76
2023/05/27 05:08:20;;;;;;;11.50;5.40;;;;;;;;;;4959364;29;20656;-76
2023/05/27 05:10:49;;;;;;;13.88;5.20;;;;;;;;;;4958689;29;20565;-77
2023/05/27 05:13:16;;;;;;;25.50;6.38;;;;;;;;;;4958036;29;20177;-76
2023/05/27 05:15:43;;;;;;;21.27;7.43;;;;;;;;;;4958701;29;20181;-77
2023/05/27 05:18:10;;;;;;;19.30;5.82;;;;;;;;;;4958729;28;20268;-77
2023/05/27 05:20:36;;;;;;;23.58;6.13;;;;;;;;;;4957765;29;20251;-82
2023/05/27 05:23:02;;;;;;;14.73;5.85;;;;;;;;;;4958102;28;20195;-76
2023/05/27 05:25:30;;;;;;;13.57;5.40;;;;;;;;;;4958510;29;20184;-76
2023/05/27 05:27:56;;;;;;;16.48;6.32;;;;;;;;;;4957646;29;20961;-77
2023/05/27 05:30:22;;;;;;;18.10;7.22;;;;;;;;;;4958846;29;20567;-77
2023/05/27 05:32:48;;;;;;;17.02;5.70;;;;;;;;;;4957788;29;20208;-76
2023/05/27 05:35:14;;;;;;;16.95;6.65;;;;;;;;;;4958626;29;20180;-77
2023/05/27 05:37:40;;;;;;;21.35;6.22;;;;;;;;;;4958679;29;20239;-77
2023/05/27 05:40:07;;;;;;;17.48;6.80;;;;;;;;;;4959041;29;20268;-77
2023/05/27 05:42:33;;;;;;;16.77;6.72;;;;;;;;;;4959085;29;20201;-77
2023/05/27 05:44:59;;;;;;;22.60;7.20;;;;;;;;;;4958973;29;20173;-77
2023/05/27 05:47:25;;;;;;;19.70;5.72;;;;;;;;;;4958954;29;20276;-77
2023/05/27 05:49:51;;;;;;;24.52;6.60;;;;;;;;;;4958701;29;20291;-77
2023/05/27 05:52:17;;;;;;;14.57;5.57;;;;;;;;;;4959466;29;20176;-77
2023/05/27 05:54:43;;;;;;;15.55;6.43;;;;;;;;;;4958942;29;20404;-78
2023/05/27 05:57:09;;;;;;;14.75;6.00;;;;;;;;;;4959608;29;20260;-76
2023/05/27 05:59:35;;;;;;;20.27;5.53;;;;;;;;;;4960817;29;20201;-77
2023/05/27 06:02:01;;;;;;;21.07;6.73;;;;;;;;;;4959977;29;20177;-77
2023/05/27 06:04:27;;;;;;;15.32;6.07;;;;;;;;;;4958691;29;20408;-77
2023/05/27 06:06:53;;;;;;;16.08;6.38;;;;;;;;;;4959085;29;20173;-77
2023/05/27 06:09:19;;;;;;;17.15;6.20;;;;;;;;;;4958759;29;20735;-76
2023/05/27 06:11:45;;;;;;;16.92;6.35;;;;;;;;;;4958647;29;20526;-77
2023/05/27 06:14:11;;;;;;;17.80;5.82;;;;;;;;;;4958542;29;20169;-78
2023/05/27 06:16:39;;;;;;;21.83;7.67;;;;;;;;;;4958852;29;20184;-77
2023/05/27 06:19:05;;;;;;;18.83;6.90;;;;;;;;;;4957723;28;20771;-77
2023/05/27 06:21:32;;;;;;;11.20;5.80;;;;;;;;;;4958474;29;20407;-77
2023/05/27 06:23:59;;;;;;;17.83;6.95;;;;;;;;;;4958326;29;20409;-77
2023/05/27 06:26:27;;;;;;;17.08;6.30;;;;;;;;;;4959009;29;20188;-77
2023/05/27 06:28:53;;;;;;;18.27;5.93;;;;;;;;;;4958895;28;20268;-77
2023/05/27 06:31:19;;;;;;;13.33;5.07;;;;;;;;;;4961887;29;20447;-77
2023/05/27 06:33:45;;;;;;;12.77;5.45;;;;;;;;;;4960900;29;20888;-77
2023/05/27 06:36:11;;;;;;;15.70;6.00;;;;;;;;;;4961510;29;20176;-77
2023/05/27 06:38:37;;;;;;;24.57;6.33;;;;;;;;;;4961801;29;20397;-77
2023/05/27 06:41:04;;;;;;;12.83;4.67;;;;;;;;;;4959712;29;20419;-77
2023/05/27 06:43:30;;;;;;;16.83;5.93;;;;;;;;;;4961024;29;20404;-89
2023/05/27 06:45:56;;;;;;;20.93;5.80;;;;;;;;;;4960668;29;20798;-78
2023/05/27 06:48:22;;;;;;;18.80;5.83;;;;;;;;;;4961026;29;20416;-77
2023/05/27 06:50:48;;;;;;;17.20;5.60;;;;;;;;;;4960747;29;20483;-78
2023/05/27 06:53:14;;;;;;;15.50;6.13;;;;;;;;;;4961979;29;20423;-77
2023/05/27 06:55:40;;;;;;;10.90;5.80;;;;;;;;;;4961507;29;20412;-77
2023/05/27 06:58:06;;;;;;;17.10;6.33;;;;;;;;;;4959571;29;20420;-77
2023/05/27 07:00:32;;;;;;;9.60;5.23;;;;;;;;;;4961283;29;20439;-78
2023/05/27 07:03:00;;;;;;;18.80;5.90;;;;;;;;;;4961055;29;20412;-78
2023/05/27 07:05:26;;;;;;;15.27;5.97;;;;;;;;;;4961475;29;20424;-78
2023/05/27 07:07:52;;;;;;;13.43;6.10;;;;;;;;;;4961605;29;20404;-77
2023/05/27 07:10:18;;;;;;;12.60;4.73;;;;;;;;;;4961778;29;20471;-78
2023/05/27 07:12:44;;;;;;;16.00;5.07;;;;;;;;;;4961941;29;20408;-78
2023/05/27 07:15:10;;;;;;;10.90;4.70;;;;;;;;;;4962247;29;20411;-78
2023/05/27 07:17:36;;;;;;;16.40;5.73;;;;;;;;;;4961489;29;20396;-77
2023/05/27 07:20:02;;;;;;;15.37;5.73;;;;;;;;;;4961341;29;20392;-77
2023/05/27 07:22:29;;;;;;;14.43;6.13;;;;;;;;;;4961410;29;20716;-78
2023/05/27 07:24:55;;;;;;;11.67;5.40;;;;;;;;;;4961388;29;20480;-78
2023/05/27 07:27:21;;;;;;;18.30;5.00;;;;;;;;;;4961790;29;20464;-78
2023/05/27 07:29:47;;;;;;;15.07;5.90;;;;;;;;;;4960856;29;20488;-78
2023/05/27 07:32:13;;;;;;;11.50;4.90;;;;;;;;;;4961251;29;20412;-77
2023/05/27 07:34:39;;;;;;;19.70;5.67;;;;;;;;;;4961378;29;20524;-78
2023/05/27 07:37:05;;;;;;;16.63;5.27;;;;;;;;;;4960742;29;20413;-78
2023/05/27 07:39:31;;;;;;;16.77;4.10;;;;;;;;;;4961026;29;20499;-77
2023/05/27 07:41:57;;;;;;;10.90;5.17;;;;;;;;;;4960376;28;20440;-78
2023/05/27 07:44:23;;;;;;;14.77;4.80;;;;;;;;;;4960954;29;20387;-78
2023/05/27 07:46:49;;;;;;;14.50;5.00;;;;;;;;;;4961034;29;20869;-78
2023/05/27 07:49:15;;;;;;;8.63;4.23;;;;;;;;;;4960253;29;20463;-78
2023/05/27 07:51:41;;;;;;;15.57;4.27;;;;;;;;;;4960062;29;20488;-78
2023/05/27 07:54:07;;;;;;;9.70;5.00;;;;;;;;;;4960298;29;20408;-78
2023/05/27 07:56:34;;;;;;;12.57;3.60;;;;;;;;;;4960205;29;20375;-78
2023/05/27 07:59:00;;;;;;;11.20;4.50;;;;;;;;;;4959918;29;20903;-78
2023/05/27 08:01:30;;;;;;;12.50;5.47;;;;;;;;;;4959895;29;20408;-78
2023/05/27 08:03:56;;;;;;;11.90;5.30;;;;;;;;;;4959810;29;20459;-78
2023/05/27 08:06:22;;;;;;;13.40;5.03;;;;;;;;;;4959645;29;20412;-78
2023/05/27 08:08:48;;;;;;;9.60;4.70;;;;;;;;;;4960298;29;20383;-78
2023/05/27 08:11:14;;;;;;;13.57;4.67;;;;;;;;;;4959969;29;20458;-78
2023/05/27 08:13:40;;;;;;;9.40;3.60;;;;;;;;;;4959793;29;20405;-78
2023/05/27 08:16:07;;;;;;;15.40;4.63;;;;;;;;;;4959515;29;20405;-77
2023/05/27 08:18:33;;;;;;;11.07;4.10;;;;;;;;;;4959910;29;20444;-78
2023/05/27 08:20:59;;;;;;;10.33;4.60;;;;;;;;;;4959336;29;20900;-78
2023/05/27 08:23:26;;;;;;;10.93;4.57;;;;;;;;;;4959287;29;20387;-78
2023/05/27 08:25:52;;;;;;;26.60;5.10;;;;;;;;;;4958831;29;20446;-78
2023/05/27 08:28:18;;;;;;;11.17;3.87;;;;;;;;;;4958664;29;20412;-78
2023/05/27 08:30:44;;;;;;;14.93;4.80;;;;;;;;;;4959139;29;20467;-77
2023/05/27 08:33:10;;;;;;;13.60;5.00;;;;;;;;;;4958671;29;20380;-78
2023/05/27 08:35:36;;;;;;;13.47;4.27;;;;;;;;;;4958617;29;20412;-75
2023/05/27 08:38:01;;;;;;;7.63;4.00;;;;;;;;;;4958180;29;20368;-76
2023/05/27 08:40:28;;;;;;;11.70;4.20;;;;;;;;;;4958704;29;20730;-76
2023/05/27 08:42:54;;;;;;;9.30;4.20;;;;;;;;;;4958093;29;20474;-76
2023/05/27 08:45:22;;;;;;;9.20;4.87;;;;;;;;;;4957025;29;20958;-77
2023/05/27 08:47:49;;;;;;;12.53;4.40;;;;;;;;;;4958884;29;20749;-77
2023/05/27 08:50:15;;;;;;;10.80;4.30;;;;;;;;;;4958539;29;20480;-77
2023/05/27 08:52:45;;;;;;;8.97;4.10;;;;;;;;;;4957719;28;20405;-77
2023/05/27 08:55:13;;;;;;;11.90;4.70;;;;;;;;;;4957971;29;20371;-77
2023/05/27 08:57:43;;;;;;;9.30;4.50;;;;;;;;;;4958316;29;20405;-77
2023/05/27 09:00:13;;;;;;;9.90;3.63;;;;;;;;;;4957512;29;20451;-77
2023/05/27 09:02:39;;;;;;;11.30;4.60;;;;;;;;;;4957886;29;20793;-77
2023/05/27 09:05:06;;;;;;;8.80;3.57;;;;;;;;;;4957568;29;20405;-77
2023/05/27 09:07:32;;;;;;;12.03;4.40;;;;;;;;;;4957433;29;20423;-78
2023/05/27 09:09:58;;;;;;;11.80;4.07;;;;;;;;;;4956584;29;20467;-78
2023/05/27 09:12:26;;;;;;;9.80;3.93;;;;;;;;;;4957283;29;20408;-77
2023/05/27 09:14:52;;;;;;;10.90;4.17;;;;;;;;;;4956776;29;20401;-78
2023/05/27 09:17:18;;;;;;;13.40;3.97;;;;;;;;;;4957183;29;20818;-77
2023/05/27 09:19:47;;;;;;;11.30;4.23;;;;;;;;;;4957022;29;20810;-77
2023/05/27 09:22:23;;;;;;;7.33;3.63;;;;;;;;;;4956170;29;20752;-76
2023/05/27 09:24:50;;;;;;;8.90;4.40;;;;;;;;;;4957041;29;20384;-76
2023/05/27 09:27:16;;;;;;;9.80;3.57;;;;;;;;;;4956713;29;20401;-76
2023/05/27 09:29:42;;;;;;;9.70;3.80;;;;;;;;;;4956169;29;20487;-77
2023/05/27 09:32:08;;;;;;;14.20;4.70;;;;;;;;;;4955987;29;20434;-77
2023/05/27 09:34:41;;;;;;;7.90;3.60;;;;;;;;;;4956012;29;20405;-77
2023/05/27 09:37:16;;;;;;;8.57;3.50;;;;;;;;;;4955731;29;20409;-77
2023/05/27 09:39:42;;;;;;;7.33;3.37;;;;;;;;;;4956018;29;20463;-78
2023/05/27 09:42:08;;;;;;;11.00;4.13;;;;;;;;;;4955381;29;20415;-78
2023/05/27 09:44:38;;;;;;;9.67;4.30;;;;;;;;;;4955601;29;20420;-77
2023/05/27 09:47:05;;;;;;;9.37;3.43;;;;;;;;;;4955283;29;20511;-77
2023/05/27 09:49:36;;;;;;;11.30;3.70;;;;;;;;;;4955200;29;20464;-78
2023/05/27 09:52:02;;;;;;;13.50;4.33;;;;;;;;;;4955351;29;20409;-78
2023/05/27 09:54:28;;;;;;;10.57;4.30;;;;;;;;;;4955702;29;20417;-78
2023/05/27 09:56:55;;;;;;;12.70;4.50;;;;;;;;;;4955506;29;20404;-78
2023/05/27 09:59:21;;;;;;;7.50;3.90;;;;;;;;;;4955083;29;20405;-78
2023/05/27 10:01:48;;;;;;;13.97;4.50;;;;;;;;;;4955647;29;20435;-78
2023/05/27 10:04:17;;;;;;;8.07;4.33;;;;;;;;;;4957183;28;20428;-87
2023/05/27 10:06:45;;;;;;;14.20;4.53;;;;;;;;;;4958652;29;20515;-82
2023/05/27 10:09:13;;;;;;;7.60;3.87;;;;;;;;;;4958709;29;20796;-82
2023/05/27 10:11:40;;;;;;;11.47;4.80;;;;;;;;;;4958949;29;20420;-82
2023/05/27 10:14:06;;;;;;;9.77;4.57;;;;;;;;;;4958874;29;20411;-82
2023/05/27 10:16:33;;;;;;;10.43;4.27;;;;;;;;;;4958952;29;20411;-82
2023/05/27 10:18:59;;;;;;;10.07;3.90;;;;;;;;;;4958753;29;20437;-82
2023/05/27 10:21:30;;;;;;;9.03;3.77;;;;;;;;;;4958346;29;20907;-83
2023/05/27 10:24:01;;;;;;;12.30;5.20;;;;;;;;;;4958482;29;20412;-82
2023/05/27 10:26:33;;;;;;;8.97;4.80;;;;;;;;;;4958581;29;20456;-78
2023/05/27 10:29:17;;;;;;;10.30;4.87;;;;;;;;;;4958001;29;20420;-79
2023/05/27 10:31:50;;;;;;;9.20;3.40;;;;;;;;;;4958487;29;20404;-78
2023/05/27 10:34:16;;;;;;;11.43;4.47;;;;;;;;;;4956980;29;20415;-78
2023/05/27 10:36:43;;;;;;;12.83;5.13;;;;;;;;;;4958428;29;20408;-78
2023/05/27 10:39:12;;;;;;;8.13;3.67;;;;;;;;;;4958074;29;20673;-77
2023/05/27 10:42:05;;;;;;;9.80;3.43;;;;;;;;;;4958559;29;20444;-79
2023/05/27 10:44:35;;;;;;;10.90;3.93;;;;;;;;;;4957872;28;20831;-78
2023/05/27 10:47:02;;;;;;;8.90;4.50;;;;;;;;;;4958015;29;20407;-74
2023/05/27 10:49:35;;;;;;;11.10;4.47;;;;;;;;;;4958223;29;20489;-75
2023/05/27 10:52:06;;;;;;;9.33;4.20;;;;;;;;;;4958019;29;20929;-77
2023/05/27 10:54:35;;;;;;;10.43;4.00;;;;;;;;;;4958412;29;20811;-76
2023/05/27 10:57:02;;;;;;;7.20;3.33;;;;;;;;;;4958021;29;20413;-77
2023/05/27 10:59:33;;;;;;;8.03;3.47;;;;;;;;;;4957882;29;20901;-74
2023/05/27 11:01:59;;;;;;;7.40;3.53;;;;;;;;;;4957665;29;20806;-77
2023/05/27 11:04:26;;;;;;;6.70;3.67;;;;;;;;;;4958228;29;20458;-76
2023/05/27 11:07:01;;;;;;;8.97;4.37;;;;;;;;;;4957917;29;20418;-76
2023/05/27 11:09:28;;;;;;;7.87;3.80;;;;;;;;;;4958194;29;20466;-74
2023/05/27 11:11:56;;;;;;;8.03;3.80;;;;;;;;;;4957953;29;20427;-76
2023/05/27 11:14:22;;;;;;;14.17;5.10;;;;;;;;;;4957773;28;20508;-76
2023/05/27 11:16:51;;;;;;;8.87;3.47;;;;;;;;;;4957520;29;20405;-76
2023/05/27 11:19:18;;;;;;;11.67;4.23;;;;;;;;;;4957734;29;20561;-76
2023/05/27 11:21:48;;;;;;;8.07;3.60;;;;;;;;;;4957860;29;20409;-76
2023/05/27 11:24:17;;;;;;;6.83;3.77;;;;;;;;;;4957678;29;20420;-76
2023/05/27 11:26:47;;;;;;;8.73;4.10;;;;;;;;;;4957811;29;20404;-76
2023/05/27 11:29:14;;;;;;;9.63;4.57;;;;;;;;;;4957381;29;20463;-76
2023/05/27 11:31:41;;;;;;;8.03;3.93;;;;;;;;;;4957818;29;20404;-76
2023/05/27 11:34:13;;;;;;;8.90;3.90;;;;;;;;;;4957374;29;20944;-76
2023/05/27 11:36:39;;;;;;;11.40;4.20;;;;;;;;;;4957711;29;20404;-76
2023/05/27 11:39:06;;;;;;;9.50;4.00;;;;;;;;;;4957287;29;20412;-76
2023/05/27 11:41:33;;;;;;;10.80;3.70;;;;;;;;;;4957144;29;20412;-76
2023/05/27 11:44:05;;;;;;;7.50;3.90;;;;;;;;;;4957437;29;20408;-77
2023/05/27 11:46:39;;;;;;;7.77;3.93;;;;;;;;;;4957396;29;20806;-76
2023/05/27 11:49:06;;;;;;;8.40;4.00;;;;;;;;;;4957143;29;20397;-76
2023/05/27 11:51:34;;;;;;;10.73;4.87;;;;;;;;;;4957208;29;20464;-76
2023/05/27 11:54:03;;;;;;;10.00;4.30;;;;;;;;;;4956946;29;20432;-77
2023/05/27 11:56:30;;;;;;;9.77;4.17;;;;;;;;;;4957237;29;20409;-76
2023/05/27 11:58:56;;;;;;;11.13;4.60;;;;;;;;;;4956967;29;20804;-76
2023/05/27 12:01:22;;;;;;;11.20;4.90;;;;;;;;;;4957177;29;20429;-76
2023/05/27 12:03:48;;;;;;;11.13;4.67;;;;;;;;;;4956856;29;20412;-76
2023/05/27 12:06:14;;;;;;;8.97;4.17;;;;;;;;;;4957161;29;20503;-76
2023/05/27 12:08:42;;;;;;;7.40;3.67;;;;;;;;;;4956760;29;20416;-76
2023/05/27 12:11:08;;;;;;;9.03;4.50;;;;;;;;;;4956413;29;20804;-76
2023/05/27 12:13:34;;;;;;;8.70;4.60;;;;;;;;;;4956956;29;20401;-76
2023/05/27 12:16:00;;;;;;;10.47;4.10;;;;;;;;;;4956586;29;20513;-76
2023/05/27 12:18:26;;;;;;;11.03;4.47;;;;;;;;;;4956657;29;20401;-76
2023/05/27 12:20:52;;;;;;;7.70;3.20;;;;;;;;;;4956584;29;20468;-76
2023/05/27 12:23:18;;;;;;;6.40;3.97;;;;;;;;;;4956709;29;20416;-76
2023/05/27 12:25:44;;;;;;;8.43;3.80;;;;;;;;;;4956816;29;20420;-76
2023/05/27 12:28:10;;;;;;;9.77;3.80;;;;;;;;;;4955412;28;20413;-76
2023/05/27 12:30:37;;;;;;;7.60;3.73;;;;;;;;;;4956342;29;20484;-76
2023/05/27 12:33:03;;;;;;;8.60;4.10;;;;;;;;;;4956551;29;20847;-76
2023/05/27 12:35:30;;;;;;;13.43;4.23;;;;;;;;;;4956620;29;20511;-76
2023/05/27 12:37:56;;;;;;;11.07;3.87;;;;;;;;;;4956045;29;20748;-76
2023/05/27 12:40:22;;;;;;;7.83;3.80;;;;;;;;;;4956138;29;20850;-76
2023/05/27 12:42:48;;;;;;;9.27;4.40;;;;;;;;;;4956159;29;20450;-76
2023/05/27 12:45:15;;;;;;;8.10;4.27;;;;;;;;;;4955974;29;20416;-76
2023/05/27 12:47:41;;;;;;;9.07;4.43;;;;;;;;;;4956199;29;20488;-74
2023/05/27 12:50:07;;;;;;;7.60;3.80;;;;;;;;;;4955573;29;20567;-77
2023/05/27 12:52:35;;;;;;;10.00;4.00;;;;;;;;;;4955711;29;20409;-76
2023/05/27 12:55:01;;;;;;;8.07;4.00;;;;;;;;;;4955987;29;20408;-76
2023/05/27 12:57:27;;;;;;;8.30;4.17;;;;;;;;;;4955853;29;20501;-75
2023/05/27 12:59:53;;;;;;;10.80;3.47;;;;;;;;;;4956116;29;20452;-76
2023/05/27 13:02:19;;;;;;;5.90;3.33;;;;;;;;;;4956250;29;20408;-76
2023/05/27 13:04:46;;;;;;;10.37;4.07;;;;;;;;;;4955637;29;20409;-76
2023/05/27 13:07:12;;;;;;;10.27;4.50;;;;;;;;;;4955829;29;20735;-76
2023/05/27 13:09:40;;;;;;;8.23;3.70;;;;;;;;;;4955931;29;20464;-76
2023/05/27 13:12:06;;;;;;;9.80;3.93;;;;;;;;;;4955568;29;20793;-77
2023/05/27 13:14:32;;;;;;;11.40;3.90;;;;;;;;;;4956521;29;20412;-76
2023/05/27 13:16:58;;;;;;;6.97;4.10;;;;;;;;;;4956103;29;20413;-76
2023/05/27 13:19:24;;;;;;;6.97;4.03;;;;;;;;;;4955912;29;21045;-76
2023/05/27 13:21:50;;;;;;;6.47;3.30;;;;;;;;;;4955384;29;20396;-76
2023/05/27 13:24:17;;;;;;;6.17;3.67;;;;;;;;;;4955507;29;20458;-76
2023/05/27 13:26:43;;;;;;;9.10;4.40;;;;;;;;;;4955802;29;20913;-76
2023/05/27 13:29:10;;;;;;;8.53;3.50;;;;;;;;;;4955469;29;20885;-76
2023/05/27 13:31:36;;;;;;;8.97;3.50;;;;;;;;;;4955628;29;20416;-76
2023/05/27 13:34:02;;;;;;;10.00;4.30;;;;;;;;;;4955588;29;20409;-76
2023/05/27 13:36:28;;;;;;;8.17;3.87;;;;;;;;;;4955333;29;20408;-76
2023/05/27 13:38:54;;;;;;;8.57;3.50;;;;;;;;;;4955540;29;20516;-80
2023/05/27 13:41:20;;;;;;;10.20;4.00;;;;;;;;;;4955339;29;20806;-83
2023/05/27 13:43:46;;;;;;;10.20;4.60;;;;;;;;;;4955174;29;20400;-82
2023/05/27 13:46:12;;;;;;;9.30;3.90;;;;;;;;;;4954840;29;20428;-79
2023/05/27 13:48:38;;;;;;;9.90;3.77;;;;;;;;;;4955385;29;20405;-76
2023/05/27 13:51:05;;;;;;;8.80;4.30;;;;;;;;;;4955220;29;20571;-79
2023/05/27 13:53:31;;;;;;;6.93;3.70;;;;;;;;;;4955313;29;20408;-78
2023/05/27 13:55:57;;;;;;;7.03;3.67;;;;;;;;;;4955304;29;20396;-78
2023/05/27 13:58:23;;;;;;;9.80;4.10;;;;;;;;;;4955397;29;20400;-78
2023/05/27 14:00:49;;;;;;;9.07;4.00;;;;;;;;;;4955138;29;20509;-78
2023/05/27 14:03:15;;;;;;;7.77;3.93;;;;;;;;;;4954850;29;20409;-78
2023/05/27 14:05:41;;;;;;;5.43;3.50;;;;;;;;;;4955529;29;20419;-78
2023/05/27 14:08:08;;;;;;;5.03;3.40;;;;;;;;;;4955388;29;20798;-78
2023/05/27 14:10:34;;;;;;;8.50;3.17;;;;;;;;;;4955573;29;20467;-77
2023/05/27 14:13:01;;;;;;;8.40;4.20;;;;;;;;;;4955233;29;20443;-77
2023/05/27 14:15:28;;;;;;;7.60;3.37;;;;;;;;;;4954844;29;20432;-78
2023/05/27 14:17:54;;;;;;;5.53;2.80;;;;;;;;;;4955132;29;20843;-78
2023/05/27 14:20:21;;;;;;;7.93;3.57;;;;;;;;;;4954891;29;20796;-78
2023/05/27 14:22:47;;;;;;;7.93;3.67;;;;;;;;;;4954920;29;20467;-78
2023/05/27 14:25:13;;;;;;;7.77;3.80;;;;;;;;;;4954662;29;20397;-78
2023/05/27 14:27:41;;;;;;;7.50;3.67;;;;;;;;;;4954789;29;20412;-77
2023/05/27 14:30:07;;;;;;;6.20;3.50;;;;;;;;;;4954402;29;20484;-77